createdAt,value
2022-12-18T00:00:26.523Z,101908.84
2022-12-18T00:03:28.983Z,101902.84
2022-12-18T00:06:31.389Z,101914.91
2022-12-18T00:09:40.000Z,101918.37
2022-12-18T00:12:42.652Z,101927.91
2022-12-18T00:15:45.117Z,101934.78
2022-12-18T00:18:49.289Z,101941.72
2022-12-18T00:21:51.855Z,101946.94
2022-12-18T00:24:53.987Z,101956.47
2022-12-18T00:27:56.580Z,101957.34
2022-12-18T00:31:03.312Z,101963.41
2022-12-18T00:34:05.832Z,101958.16
2022-12-18T00:37:08.086Z,101972.03
2022-12-18T00:40:11.238Z,101968.56
2022-12-18T00:43:13.339Z,101966.78
2022-12-18T00:46:15.696Z,101970.22
2022-12-18T00:49:20.205Z,101974.59
2022-12-18T00:52:22.951Z,101983.22
2022-12-18T00:55:25.127Z,101988.31
2022-12-18T00:58:27.536Z,101990.91
2022-12-18T01:01:29.846Z,101996.06
2022-12-18T01:04:33.500Z,102005.50
2022-12-18T01:07:36.225Z,102011.47
2022-12-18T01:10:42.426Z,102012.31
2022-12-18T01:13:44.971Z,102010.63
2022-12-18T01:16:47.444Z,102021.94
2022-12-18T01:19:49.779Z,102016.75
2022-12-18T01:22:52.199Z,102034.81
2022-12-18T01:25:54.467Z,102034.06
2022-12-18T01:28:57.727Z,102028.03
2022-12-18T01:32:00.019Z,102034.16
2022-12-18T01:35:02.691Z,102032.47
2022-12-18T01:38:04.766Z,102039.34
2022-12-18T01:41:09.250Z,102043.66
2022-12-18T01:44:48.687Z,102035.03
2022-12-18T01:47:55.772Z,102033.31
2022-12-18T01:50:57.945Z,102048.78
2022-12-18T01:54:00.809Z,102049.72
2022-12-18T01:57:03.193Z,102052.25
2022-12-18T02:00:11.896Z,102055.62
2022-12-18T02:03:15.144Z,102063.44
2022-12-18T02:06:33.209Z,102061.63
2022-12-18T02:09:45.484Z,102069.34
2022-12-18T02:13:12.035Z,102069.28
2022-12-18T02:16:20.461Z,102074.50
2022-12-18T02:19:48.239Z,102075.38
2022-12-18T02:23:11.868Z,102074.53
2022-12-18T02:26:22.962Z,102082.44
2022-12-18T02:29:57.936Z,102076.44
2022-12-18T02:33:03.353Z,102081.69
2022-12-18T02:36:06.786Z,102095.47
2022-12-18T02:39:12.656Z,102101.44
2022-12-18T02:42:17.232Z,102095.41
2022-12-18T02:45:19.800Z,102105.59
2022-12-18T02:48:29.345Z,102110.78
2022-12-18T02:51:44.471Z,102104.72
2022-12-18T02:55:18.553Z,102114.41
2022-12-18T02:58:30.878Z,102116.97
2022-12-18T03:01:48.575Z,102118.56
2022-12-18T03:05:03.936Z,102123.69
2022-12-18T03:08:13.644Z,102127.12
2022-12-18T03:11:16.473Z,102133.38
2022-12-18T03:14:22.337Z,102131.75
2022-12-18T03:17:28.217Z,102133.53
2022-12-18T03:20:35.043Z,102147.38
2022-12-18T03:23:44.897Z,102146.50
2022-12-18T03:26:53.224Z,102141.28
2022-12-18T03:30:08.755Z,102148.19
2022-12-18T03:33:28.456Z,102150.84
2022-12-18T03:36:31.210Z,102159.47
2022-12-18T03:39:35.713Z,102165.44
2022-12-18T03:42:56.667Z,102167.91
2022-12-18T03:46:09.104Z,102173.81
2022-12-18T03:49:26.733Z,102181.50
2022-12-18T03:52:46.268Z,102180.66
2022-12-18T03:55:51.095Z,102178.00
2022-12-18T03:58:55.279Z,102171.97
2022-12-18T04:02:00.787Z,102171.00
2022-12-18T04:05:06.964Z,102179.37
2022-12-18T04:08:10.090Z,102181.81
2022-12-18T04:11:13.423Z,102185.22
2022-12-18T04:14:18.245Z,102188.63
2022-12-18T04:17:23.396Z,102195.44
2022-12-18T04:20:25.460Z,102190.97
2022-12-18T04:23:29.288Z,102190.84
2022-12-18T04:26:32.020Z,102190.78
2022-12-18T04:29:35.638Z,102197.62
2022-12-18T04:32:37.816Z,102198.44
2022-12-18T04:35:42.630Z,102194.97
2022-12-18T04:38:44.926Z,102205.31
2022-12-18T04:41:47.769Z,102209.63
2022-12-18T04:44:49.946Z,102212.16
2022-12-18T04:47:52.344Z,102224.19
2022-12-18T04:50:54.426Z,102230.13
2022-12-18T04:53:56.945Z,102236.19
2022-12-18T04:56:59.131Z,102240.47
2022-12-18T05:00:02.438Z,102242.16
2022-12-18T05:03:04.747Z,102244.72
2022-12-18T05:06:08.250Z,102247.28
2022-12-18T05:09:10.358Z,102249.81
2022-12-18T05:12:12.777Z,102252.31
2022-12-18T05:15:14.913Z,102250.47
2022-12-18T05:18:17.340Z,102257.41
2022-12-18T05:21:19.448Z,102258.31
2022-12-18T05:24:21.860Z,102265.06
2022-12-18T05:27:24.034Z,102257.13
2022-12-18T05:30:26.543Z,102262.16
2022-12-18T05:33:31.998Z,102273.41
2022-12-18T05:36:34.391Z,102280.16
2022-12-18T05:39:36.489Z,102285.34
2022-12-18T05:42:38.951Z,102290.38
2022-12-18T05:45:42.234Z,102285.19
2022-12-18T05:48:46.027Z,102295.53
2022-12-18T05:51:48.264Z,102292.13
2022-12-18T05:54:50.724Z,102300.78
2022-12-18T05:57:52.877Z,102301.63
2022-12-18T06:00:55.364Z,102306.84
2022-12-18T06:03:57.870Z,102311.19
2022-12-18T06:07:00.192Z,102312.69
2022-12-18T06:10:02.857Z,102316.06
2022-12-18T06:13:05.639Z,102310.00
2022-12-18T06:16:09.179Z,102318.78
2022-12-18T06:19:16.504Z,102316.12
2022-12-18T06:22:19.182Z,102311.84
2022-12-18T06:25:21.394Z,102313.50
2022-12-18T06:28:23.905Z,102326.41
2022-12-18T06:31:26.526Z,102332.47
2022-12-18T06:34:29.037Z,102346.19
2022-12-18T06:37:33.940Z,102347.97
2022-12-18T06:40:39.988Z,102354.09
2022-12-18T06:43:43.011Z,102355.81
2022-12-18T06:46:45.701Z,102370.66
2022-12-18T06:49:47.783Z,102368.19
2022-12-18T06:52:50.172Z,102363.94
2022-12-18T06:55:52.368Z,102363.16
2022-12-18T06:58:54.909Z,102371.78
2022-12-18T07:01:57.222Z,102381.41
2022-12-18T07:04:59.845Z,102389.19
2022-12-18T07:08:01.968Z,102391.94
2022-12-18T07:11:05.899Z,102388.66
2022-12-18T07:14:07.979Z,102399.28
2022-12-18T07:17:10.547Z,102409.78
2022-12-18T07:20:12.699Z,102405.50
2022-12-18T07:23:15.180Z,102416.75
2022-12-18T07:26:20.623Z,102424.75
2022-12-18T07:29:23.077Z,102421.50
2022-12-18T07:32:25.236Z,102428.44
2022-12-18T07:35:27.682Z,102435.47
2022-12-18T07:38:30.141Z,102441.72
2022-12-18T07:41:33.815Z,102445.34
2022-12-18T07:44:40.380Z,102448.09
2022-12-18T07:47:42.793Z,102449.94
2022-12-18T07:50:44.905Z,102459.75
2022-12-18T07:53:49.449Z,102461.56
2022-12-18T07:56:54.490Z,102456.38
2022-12-18T07:59:56.927Z,102471.22
2022-12-18T08:02:59.226Z,102469.63
2022-12-18T08:06:07.592Z,102485.38
2022-12-18T08:09:11.109Z,102488.72
2022-12-18T08:12:13.481Z,102485.44
2022-12-18T08:15:15.731Z,102494.19
2022-12-18T08:18:18.095Z,102491.72
2022-12-18T08:21:24.116Z,102497.09
2022-12-18T08:24:26.704Z,102493.66
2022-12-18T08:27:29.899Z,102500.66
2022-12-18T08:30:32.830Z,102497.25
2022-12-18T08:33:36.367Z,102497.44
2022-12-18T08:36:38.874Z,102500.97
2022-12-18T08:39:40.969Z,102507.16
2022-12-18T08:43:02.056Z,102503.75
2022-12-18T08:46:04.331Z,102518.53
2022-12-18T08:49:08.219Z,102507.41
2022-12-18T08:52:10.251Z,102508.37
2022-12-18T08:55:12.614Z,102511.00
2022-12-18T08:58:14.732Z,102515.44
2022-12-18T09:01:17.396Z,102520.66
2022-12-18T09:04:19.643Z,102525.13
2022-12-18T09:07:22.037Z,102527.84
2022-12-18T09:10:24.190Z,102534.00
2022-12-18T09:13:26.698Z,102535.88
2022-12-18T09:16:32.235Z,102537.66
2022-12-18T09:19:35.281Z,102544.81
2022-12-18T09:22:37.397Z,102536.69
2022-12-18T09:25:40.523Z,102532.31
2022-12-18T09:28:44.069Z,102523.53
2022-12-18T09:31:46.547Z,102521.53
2022-12-18T09:34:48.707Z,102525.81
2022-12-18T09:37:51.176Z,102529.19
2022-12-18T09:40:58.548Z,102522.13
2022-12-18T09:44:06.745Z,102530.16
2022-12-18T09:47:16.006Z,102521.63
2022-12-18T09:50:33.657Z,102526.19
2022-12-18T09:53:42.602Z,102538.47
2022-12-18T09:56:45.284Z,102531.41
2022-12-18T09:59:52.926Z,102537.53
2022-12-18T10:03:02.561Z,102533.25
2022-12-18T10:06:08.095Z,102527.12
2022-12-18T10:09:23.438Z,102527.00
2022-12-18T10:12:38.766Z,102524.69
2022-12-18T10:16:13.881Z,102525.41
2022-12-18T10:19:24.001Z,102520.69
2022-12-18T10:22:44.685Z,102520.66
2022-12-18T10:26:01.388Z,102516.69
2022-12-18T10:29:12.051Z,102515.81
2022-12-18T10:32:18.105Z,102513.25
2022-12-18T10:35:26.721Z,102516.75
2022-12-18T10:38:32.637Z,102515.88
2022-12-18T10:41:34.859Z,102513.25
2022-12-18T10:44:37.276Z,102522.81
2022-12-18T10:47:57.490Z,102511.50
2022-12-18T10:51:10.813Z,102508.03
2022-12-18T10:54:24.928Z,102513.25
2022-12-18T10:57:27.246Z,102511.50
2022-12-18T11:00:31.634Z,102508.88
2022-12-18T11:03:45.397Z,102514.09
2022-12-18T11:07:14.127Z,102510.63
2022-12-18T11:10:21.704Z,102503.69
2022-12-18T11:13:27.163Z,102508.03
2022-12-18T11:16:32.152Z,102496.72
2022-12-18T11:19:40.646Z,102503.66
2022-12-18T11:22:43.518Z,102500.19
2022-12-18T11:25:54.628Z,102501.06
2022-12-18T11:29:11.888Z,102502.78
2022-12-18T11:32:38.097Z,102503.66
2022-12-18T11:35:40.445Z,102501.03
2022-12-18T11:38:45.590Z,102489.62
2022-12-18T11:42:10.664Z,102492.81
2022-12-18T11:45:14.126Z,102485.50
2022-12-18T11:48:26.480Z,102480.06
2022-12-18T11:51:44.409Z,102479.31
2022-12-18T11:54:46.825Z,102476.66
2022-12-18T11:58:02.773Z,102474.53
2022-12-18T12:01:23.600Z,102472.38
2022-12-18T12:04:49.977Z,102472.25
2022-12-18T12:08:01.141Z,102461.44
2022-12-18T12:11:34.498Z,102466.41
2022-12-18T12:14:56.345Z,102465.66
2022-12-18T12:19:01.344Z,102467.41
2022-12-18T12:22:17.854Z,102468.75
2022-12-18T12:25:30.456Z,102464.63
2022-12-18T12:28:58.628Z,102468.13
2022-12-18T12:32:13.494Z,102466.81
2022-12-18T12:35:43.284Z,102467.84
2022-12-18T12:38:52.345Z,102472.25
2022-12-18T12:42:13.812Z,102471.47
2022-12-18T12:45:27.442Z,102470.72
2022-12-18T12:48:39.082Z,102471.72
2022-12-18T12:51:46.147Z,102479.81
2022-12-18T12:54:50.765Z,102487.09
2022-12-18T12:58:06.655Z,102493.59
2022-12-18T13:01:27.663Z,102507.63
2022-12-18T13:04:33.148Z,102503.38
2022-12-18T13:07:41.344Z,102498.22
2022-12-18T13:10:43.863Z,102498.81
2022-12-18T13:13:50.634Z,102498.22
2022-12-18T13:17:16.633Z,102511.59
2022-12-18T13:20:18.878Z,102514.19
2022-12-18T13:23:21.222Z,102509.81
2022-12-18T13:26:28.764Z,102507.28
2022-12-18T13:29:47.429Z,102520.03
2022-12-18T13:33:15.413Z,102526.03
2022-12-18T13:36:29.094Z,102521.97
2022-12-18T13:43:14.127Z,102528.00
2022-12-18T13:46:22.108Z,102526.03
2022-12-18T13:49:40.692Z,102532.00
2022-12-18T13:52:44.628Z,102535.81
2022-12-18T13:55:47.242Z,102536.94
2022-12-18T13:59:24.762Z,102537.22
2022-12-18T14:02:29.665Z,102535.47
2022-12-18T14:05:36.537Z,102542.59
2022-12-18T14:08:44.126Z,102545.31
2022-12-18T14:11:50.292Z,102549.69
2022-12-18T14:14:54.918Z,102553.22
2022-12-18T14:18:14.279Z,102544.56
2022-12-18T14:21:30.881Z,102544.56
2022-12-18T14:24:33.829Z,102554.12
2022-12-18T14:27:39.013Z,102547.16
2022-12-18T14:30:46.953Z,102547.19
2022-12-18T14:33:49.472Z,102546.31
2022-12-18T14:36:56.848Z,102561.09
2022-12-18T14:40:11.347Z,102554.09
2022-12-18T14:43:14.575Z,102560.16
2022-12-18T14:46:34.107Z,102570.56
2022-12-18T14:49:38.085Z,102570.53
2022-12-18T14:52:40.198Z,102581.75
2022-12-18T14:55:49.428Z,102579.09
2022-12-18T14:58:59.057Z,102592.97
2022-12-18T15:02:35.601Z,102594.66
2022-12-18T15:05:37.893Z,102597.13
2022-12-18T15:08:40.538Z,102590.94
2022-12-18T15:11:42.739Z,102595.22
2022-12-18T15:14:45.156Z,102609.97
2022-12-18T15:17:47.291Z,102614.25
2022-12-18T15:21:08.154Z,102610.78
2022-12-18T15:24:20.165Z,102620.25
2022-12-18T15:27:36.677Z,102622.72
2022-12-18T15:30:38.926Z,102620.00
2022-12-18T15:34:15.364Z,102627.72
2022-12-18T15:37:17.545Z,102633.69
2022-12-18T15:40:24.928Z,102637.00
2022-12-18T15:43:34.974Z,102640.50
2022-12-18T15:46:37.466Z,102637.00
2022-12-18T15:49:40.550Z,102643.00
2022-12-18T15:52:46.115Z,102659.41
2022-12-18T15:56:06.836Z,102659.25
2022-12-18T15:59:15.024Z,102673.00
2022-12-18T16:02:19.339Z,102671.28
2022-12-18T16:05:23.903Z,102665.16
2022-12-18T16:08:25.990Z,102684.37
2022-12-18T16:11:39.614Z,102679.09
2022-12-18T16:14:41.772Z,102678.00
2022-12-18T16:17:45.243Z,102677.03
2022-12-18T16:20:49.581Z,102674.25
2022-12-18T16:23:52.017Z,102682.78
2022-12-18T16:26:55.150Z,102693.03
2022-12-18T16:29:57.695Z,102699.88
2022-12-18T16:33:00.720Z,102695.47
2022-12-18T16:36:03.326Z,102705.00
2022-12-18T16:39:05.451Z,102706.78
2022-12-18T16:42:17.876Z,102699.84
2022-12-18T16:45:20.117Z,102714.50
2022-12-18T16:48:22.568Z,102710.81
2022-12-18T16:51:25.150Z,102713.41
2022-12-18T16:54:30.401Z,102721.19
2022-12-18T16:57:32.628Z,102727.34
2022-12-18T17:00:35.041Z,102722.06
2022-12-18T17:03:37.802Z,102718.41
2022-12-18T17:06:43.070Z,102716.66
2022-12-18T17:09:46.227Z,102714.97
2022-12-18T17:12:51.148Z,102702.97
2022-12-18T17:15:53.879Z,102702.34
2022-12-18T17:18:56.276Z,102700.53
2022-12-18T17:21:58.468Z,102704.81
2022-12-18T17:25:00.899Z,102696.81
2022-12-18T17:28:03.016Z,102697.53
2022-12-18T17:31:14.322Z,102699.97
2022-12-18T17:34:16.569Z,102707.66
2022-12-18T17:37:18.986Z,102710.28
2022-12-18T17:40:21.193Z,102705.88
2022-12-18T17:43:23.586Z,102709.22
2022-12-18T17:46:27.423Z,102715.25
2022-12-18T17:49:29.868Z,102722.97
2022-12-18T17:52:32.026Z,102728.97
2022-12-18T17:55:34.506Z,102728.06
2022-12-18T17:58:37.226Z,102720.28
2022-12-18T18:01:44.749Z,102719.41
2022-12-18T18:04:47.929Z,102715.91
2022-12-18T18:07:50.081Z,102719.28
2022-12-18T18:10:55.044Z,102719.19
2022-12-18T18:14:01.000Z,102719.16
2022-12-18T18:17:04.816Z,102715.59
2022-12-18T18:20:07.801Z,102722.59
2022-12-18T18:23:10.183Z,102731.19
2022-12-18T18:26:12.383Z,102729.44
2022-12-18T18:29:17.487Z,102725.88
2022-12-18T18:32:21.034Z,102728.50
2022-12-18T18:35:52.253Z,102725.91
2022-12-18T18:38:48.569Z,102731.00
2022-12-18T18:41:51.256Z,102729.22
2022-12-18T18:44:53.342Z,102738.69
2022-12-18T18:47:56.191Z,102748.25
2022-12-18T18:51:00.709Z,102747.53
2022-12-18T18:54:03.134Z,102747.59
2022-12-18T18:57:20.265Z,102755.41
2022-12-18T19:00:23.426Z,102757.06
2022-12-18T19:03:27.172Z,102758.66
2022-12-18T19:06:29.975Z,102759.28
2022-12-18T19:09:33.706Z,102754.91
2022-12-18T19:12:54.654Z,102765.16
2022-12-18T19:16:08.032Z,102765.16
2022-12-18T19:19:13.320Z,102765.81
2022-12-18T19:22:15.877Z,102771.81
2022-12-18T19:25:18.734Z,102772.75
2022-12-18T19:28:25.965Z,102777.06
2022-12-18T19:31:34.769Z,102778.84
2022-12-18T19:34:38.062Z,102787.50
2022-12-18T19:37:40.782Z,102793.56
2022-12-18T19:40:44.488Z,102796.22
2022-12-18T19:43:47.604Z,102790.09
2022-12-18T19:46:51.460Z,102789.25
2022-12-18T19:49:53.917Z,102797.03
2022-12-18T19:52:56.177Z,102799.63
2022-12-18T19:55:58.659Z,102800.34
2022-12-18T19:59:01.520Z,102812.31
2022-12-18T20:02:04.152Z,102814.88
2022-12-18T20:05:09.500Z,102817.53
2022-12-18T20:08:11.899Z,102810.44
2022-12-18T20:11:14.325Z,102808.66
2022-12-18T20:14:18.756Z,102811.06
2022-12-18T20:17:25.825Z,102823.03
2022-12-18T20:20:28.181Z,102820.63
2022-12-18T20:23:31.264Z,102816.41
2022-12-18T20:26:35.388Z,102827.56
2022-12-18T20:29:37.912Z,102830.94
2022-12-18T20:32:40.069Z,102836.87
2022-12-18T20:35:43.143Z,102837.97
2022-12-18T20:38:46.135Z,102838.81
2022-12-18T20:41:50.945Z,102837.94
2022-12-18T20:44:53.099Z,102834.44
2022-12-18T20:47:55.596Z,102838.62
2022-12-18T20:51:07.251Z,102831.84
2022-12-18T20:54:11.925Z,102836.06
2022-12-18T20:57:14.319Z,102844.75
2022-12-18T21:00:18.975Z,102847.28
2022-12-18T21:03:23.506Z,102848.00
2022-12-18T21:06:26.472Z,102847.28
2022-12-18T21:09:35.934Z,102856.75
2022-12-18T21:12:56.148Z,102854.13
2022-12-18T21:16:05.173Z,102854.34
2022-12-18T21:19:11.263Z,102860.50
2022-12-18T21:22:13.598Z,102864.63
2022-12-18T21:25:16.577Z,102859.50
2022-12-18T21:28:18.781Z,102866.41
2022-12-18T21:31:23.388Z,102855.41
2022-12-18T21:34:28.519Z,102855.84
2022-12-18T21:37:30.969Z,102849.16
2022-12-18T21:40:33.076Z,102846.50
2022-12-18T21:43:57.838Z,102848.28
2022-12-18T21:47:09.396Z,102851.34
2022-12-18T21:50:17.128Z,102835.53
2022-12-18T21:53:19.264Z,102833.66
2022-12-18T21:56:21.786Z,102844.78
2022-12-18T21:59:23.930Z,102840.78
2022-12-18T22:02:26.685Z,102839.47
2022-12-18T22:05:29.497Z,102846.50
2022-12-18T22:08:31.616Z,102842.94
2022-12-18T22:11:34.093Z,102828.88
2022-12-18T22:14:36.295Z,102838.66
2022-12-18T22:17:39.470Z,102842.16
2022-12-18T22:20:41.928Z,102843.91
2022-12-18T22:23:44.328Z,102841.47
2022-12-18T22:26:47.273Z,102839.78
2022-12-18T22:30:04.930Z,102842.16
2022-12-18T22:33:07.019Z,102849.09
2022-12-18T22:36:09.579Z,102846.03
2022-12-18T22:39:15.377Z,102843.22
2022-12-18T22:42:17.860Z,102837.88
2022-12-18T22:45:20.533Z,102852.53
2022-12-18T22:48:22.973Z,102851.72
2022-12-18T22:51:25.529Z,102853.41
2022-12-18T22:54:27.960Z,102858.03
2022-12-18T22:57:30.117Z,102863.25
2022-12-18T23:00:32.996Z,102865.47
2022-12-18T23:03:35.910Z,102868.00
2022-12-18T23:06:40.262Z,102868.91
2022-12-18T23:09:42.413Z,102866.94
2022-12-18T23:12:44.764Z,102864.22
2022-12-18T23:15:47.445Z,102858.16
2022-12-18T23:18:55.322Z,102860.97
2022-12-18T23:21:58.734Z,102862.47
2022-12-18T23:25:01.158Z,102869.97
2022-12-18T23:28:03.909Z,102866.41
2022-12-18T23:31:12.256Z,102866.31
2022-12-18T23:34:17.988Z,102867.88
2022-12-18T23:37:42.340Z,102852.41
2022-12-18T23:40:42.874Z,102855.81
2022-12-18T23:43:47.608Z,102864.37
2022-12-18T23:46:50.614Z,102858.88
2022-12-18T23:49:53.111Z,102857.06
2022-12-18T23:52:55.504Z,102857.03
2022-12-18T23:55:59.683Z,102873.53
2022-12-18T23:59:01.850Z,102882.84
